Colton, Oregon
Current Conditions -  °F | °C
As of 4:53 PM on Sunday 23 Nov 2014 (Local Time) from KUAO Reporting Station
Overcast Overcast  
Wind Chill: 50°   Ceiling: 6500
Heat Index: 50°   Visibility: 10mi
Dew Point: 48°   Wind: 7mph
Humidity: 93%   Direction: 200°SSW
Pressure: 30.3"   Gusts: NA
Location:  45.17°N, 122.44°W
Report Text: KUAO 240053Z AUTO 20006KT 10SM OVC065 10/09 A3030 RMK AO2 RAE17 SLP260 P0003 T01000089
Loading
Personal Weather Stations






























Interactive Weather Map New forecast layout! Learn more

10-Day Weather Forecast

Advertisements
Track Severe Weather on mobile